sensor_id;sensor_type;location;lat;lon;timestamp;pressure;altitude;pressure_sealevel;temperature;humidity
1616;BME280;801;47.982;7.810;2023-07-20T00:00:40;98591.88;;;23.65;68.17
1616;BME280;801;47.982;7.810;2023-07-20T00:03:10;98587.97;;;23.66;67.84
1616;BME280;801;47.982;7.810;2023-07-20T00:05:42;98604.91;;;23.68;67.90
1616;BME280;801;47.982;7.810;2023-07-20T00:08:09;98593.25;;;23.71;67.78
1616;BME280;801;47.982;7.810;2023-07-20T00:10:36;98586.16;;;23.70;68.52
1616;BME280;801;47.982;7.810;2023-07-20T00:13:03;98588.09;;;23.70;68.44
1616;BME280;801;47.982;7.810;2023-07-20T00:15:29;98591.69;;;23.58;68.74
1616;BME280;801;47.982;7.810;2023-07-20T00:17:56;98593.97;;;23.56;67.66
1616;BME280;801;47.982;7.810;2023-07-20T00:20:24;98588.81;;;23.54;68.04
1616;BME280;801;47.982;7.810;2023-07-20T00:22:51;98586.19;;;23.58;69.23
1616;BME280;801;47.982;7.810;2023-07-20T00:25:17;98596.03;;;23.47;67.51
1616;BME280;801;47.982;7.810;2023-07-20T00:27:45;98595.59;;;23.45;69.08
1616;BME280;801;47.982;7.810;2023-07-20T00:30:12;98600.03;;;23.49;69.84
1616;BME280;801;47.982;7.810;2023-07-20T00:32:39;98593.84;;;23.52;69.46
1616;BME280;801;47.982;7.810;2023-07-20T00:35:06;98594.75;;;23.56;70.39
1616;BME280;801;47.982;7.810;2023-07-20T00:37:33;98600.03;;;23.49;71.00
1616;BME280;801;47.982;7.810;2023-07-20T00:39:59;98598.66;;;23.43;69.96
1616;BME280;801;47.982;7.810;2023-07-20T00:42:26;98600.13;;;23.53;70.73
1616;BME280;801;47.982;7.810;2023-07-20T00:44:54;98590.84;;;23.57;70.87
1616;BME280;801;47.982;7.810;2023-07-20T00:47:20;98596.84;;;23.47;70.84
1616;BME280;801;47.982;7.810;2023-07-20T00:49:47;98589.53;;;23.51;72.49
1616;BME280;801;47.982;7.810;2023-07-20T00:52:14;98594.19;;;23.51;71.78
1616;BME280;801;47.982;7.810;2023-07-20T00:54:41;98585.16;;;23.50;73.03
1616;BME280;801;47.982;7.810;2023-07-20T00:57:08;98596.03;;;23.47;73.08
1616;BME280;801;47.982;7.810;2023-07-20T00:59:35;98591.81;;;23.37;72.54
1616;BME280;801;47.982;7.810;2023-07-20T01:02:03;98585.88;;;23.35;71.50
1616;BME280;801;47.982;7.810;2023-07-20T01:04:30;98577.19;;;23.33;72.13
1616;BME280;801;47.982;7.810;2023-07-20T01:07:00;98578.22;;;23.28;71.06
1616;BME280;801;47.982;7.810;2023-07-20T01:09:35;98582.94;;;23.15;71.80
1616;BME280;801;47.982;7.810;2023-07-20T01:12:08;98580.53;;;23.02;72.19
1616;BME280;801;47.982;7.810;2023-07-20T01:14:35;98582.03;;;23.11;72.91
1616;BME280;801;47.982;7.810;2023-07-20T01:17:01;98576.19;;;23.13;73.55
1616;BME280;801;47.982;7.810;2023-07-20T01:19:30;98577.59;;;23.07;71.87
1616;BME280;801;47.982;7.810;2023-07-20T01:22:01;98578.34;;;22.95;70.96
1616;BME280;801;47.982;7.810;2023-07-20T01:25:03;98577.34;;;22.99;73.22
1616;BME280;801;47.982;7.810;2023-07-20T01:27:51;98578.94;;;23.00;72.89
1616;BME280;801;47.982;7.810;2023-07-20T01:30:43;98575.88;;;23.02;74.05
1616;BME280;801;47.982;7.810;2023-07-20T01:33:13;98578.03;;;23.09;72.84
1616;BME280;801;47.982;7.810;2023-07-20T01:35:43;98573.69;;;23.08;71.66
1616;BME280;801;47.982;7.810;2023-07-20T01:38:11;98580.53;;;23.14;72.57
1616;BME280;801;47.982;7.810;2023-07-20T01:40:40;98575.41;;;23.12;70.32
1616;BME280;801;47.982;7.810;2023-07-20T01:43:07;98573.25;;;23.18;71.58
1616;BME280;801;47.982;7.810;2023-07-20T01:45:33;98573.91;;;23.15;72.48
1616;BME280;801;47.982;7.810;2023-07-20T01:48:00;98573.56;;;23.16;72.61
1616;BME280;801;47.982;7.810;2023-07-20T01:50:28;98564.81;;;23.11;72.26
1616;BME280;801;47.982;7.810;2023-07-20T01:52:54;98565.13;;;23.09;72.97
1616;BME280;801;47.982;7.810;2023-07-20T01:55:21;98569.25;;;23.03;73.25
1616;BME280;801;47.982;7.810;2023-07-20T01:57:48;98563.19;;;23.10;72.35
1616;BME280;801;47.982;7.810;2023-07-20T02:00:15;98560.00;;;23.08;72.74
1616;BME280;801;47.982;7.810;2023-07-20T02:02:41;98562.19;;;23.02;73.71
1616;BME280;801;47.982;7.810;2023-07-20T02:05:08;98561.44;;;22.93;75.05
1616;BME280;801;47.982;7.810;2023-07-20T02:07:36;98562.94;;;22.90;76.40
1616;BME280;801;47.982;7.810;2023-07-20T02:10:03;98564.09;;;22.89;76.27
1616;BME280;801;47.982;7.810;2023-07-20T02:12:30;98556.91;;;22.85;78.43
1616;BME280;801;47.982;7.810;2023-07-20T02:14:56;98558.25;;;22.78;80.94
1616;BME280;801;47.982;7.810;2023-07-20T02:17:23;98561.47;;;22.80;81.76
1616;BME280;801;47.982;7.810;2023-07-20T02:19:50;98555.38;;;22.75;82.82
1616;BME280;801;47.982;7.810;2023-07-20T02:22:17;98560.88;;;22.75;83.95
1616;BME280;801;47.982;7.810;2023-07-20T02:24:44;98557.44;;;22.66;85.63
1616;BME280;801;47.982;7.810;2023-07-20T02:27:11;98554.16;;;22.60;88.11
1616;BME280;801;47.982;7.810;2023-07-20T02:29:37;98556.53;;;22.62;88.66
1616;BME280;801;47.982;7.810;2023-07-20T02:32:05;98546.03;;;22.51;90.51
1616;BME280;801;47.982;7.810;2023-07-20T02:36:58;98550.34;;;22.40;91.96
1616;BME280;801;47.982;7.810;2023-07-20T02:39:27;98558.09;;;22.38;93.15
1616;BME280;801;47.982;7.810;2023-07-20T02:41:54;98556.25;;;22.30;93.88
1616;BME280;801;47.982;7.810;2023-07-20T02:44:21;98551.19;;;22.20;95.78
1616;BME280;801;47.982;7.810;2023-07-20T02:46:48;98553.22;;;22.10;97.09
1616;BME280;801;47.982;7.810;2023-07-20T02:49:15;98556.75;;;22.11;97.67
1616;BME280;801;47.982;7.810;2023-07-20T02:51:42;98557.78;;;22.06;97.77
1616;BME280;801;47.982;7.810;2023-07-20T02:54:07;98549.97;;;21.96;99.28
1616;BME280;801;47.982;7.810;2023-07-20T02:56:34;98543.09;;;21.90;99.86
1616;BME280;801;47.982;7.810;2023-07-20T02:59:02;98548.00;;;21.84;100.00
1616;BME280;801;47.982;7.810;2023-07-20T03:01:29;98556.19;;;21.84;100.00
1616;BME280;801;47.982;7.810;2023-07-20T03:03:55;98555.13;;;21.76;100.00
1616;BME280;801;47.982;7.810;2023-07-20T03:06:22;98548.53;;;21.77;100.00
1616;BME280;801;47.982;7.810;2023-07-20T03:08:49;98556.75;;;21.77;100.00
1616;BME280;801;47.982;7.810;2023-07-20T03:11:18;98556.50;;;21.70;100.00
1616;BME280;801;47.982;7.810;2023-07-20T03:13:46;98544.16;;;21.64;99.95
1616;BME280;801;47.982;7.810;2023-07-20T03:16:18;98555.72;;;21.61;99.83
1616;BME280;801;47.982;7.810;2023-07-20T03:18:44;98552.34;;;21.64;99.80
1616;BME280;801;47.982;7.810;2023-07-20T03:21:11;98558.88;;;21.51;100.00
1616;BME280;801;47.982;7.810;2023-07-20T03:23:38;98559.09;;;21.46;100.00
1616;BME280;801;47.982;7.810;2023-07-20T03:26:05;98561.50;;;21.39;100.00
1616;BME280;801;47.982;7.810;2023-07-20T03:28:33;98559.91;;;21.38;100.00
1616;BME280;801;47.982;7.810;2023-07-20T03:31:00;98555.44;;;21.33;100.00
1616;BME280;801;47.982;7.810;2023-07-20T03:33:28;98564.28;;;21.30;100.00
1616;BME280;801;47.982;7.810;2023-07-20T03:35:55;98567.03;;;21.30;100.00
1616;BME280;801;47.982;7.810;2023-07-20T03:38:25;98563.38;;;21.26;100.00
1616;BME280;801;47.982;7.810;2023-07-20T03:40:54;98559.72;;;21.22;100.00
1616;BME280;801;47.982;7.810;2023-07-20T03:43:21;98557.81;;;21.13;100.00
1616;BME280;801;47.982;7.810;2023-07-20T03:45:47;98564.06;;;21.14;100.00
1616;BME280;801;47.982;7.810;2023-07-20T03:48:15;98571.34;;;21.10;100.00
1616;BME280;801;47.982;7.810;2023-07-20T03:50:43;98576.81;;;21.10;100.00
1616;BME280;801;47.982;7.810;2023-07-20T03:53:10;98571.81;;;21.12;100.00
1616;BME280;801;47.982;7.810;2023-07-20T03:55:37;98571.41;;;21.01;100.00
1616;BME280;801;47.982;7.810;2023-07-20T03:58:05;98568.53;;;20.98;100.00
1616;BME280;801;47.982;7.810;2023-07-20T04:00:32;98567.56;;;20.93;100.00
1616;BME280;801;47.982;7.810;2023-07-20T04:02:59;98576.25;;;20.96;100.00
1616;BME280;801;47.982;7.810;2023-07-20T04:05:25;98572.66;;;21.04;99.72
1616;BME280;801;47.982;7.810;2023-07-20T04:07:53;98574.25;;;21.05;98.54
1616;BME280;801;47.982;7.810;2023-07-20T04:10:20;98573.28;;;21.09;99.00
1616;BME280;801;47.982;7.810;2023-07-20T04:12:46;98570.88;;;21.08;100.00
1616;BME280;801;47.982;7.810;2023-07-20T04:15:13;98575.88;;;21.06;100.00
1616;BME280;801;47.982;7.810;2023-07-20T04:17:40;98578.78;;;21.01;100.00
1616;BME280;801;47.982;7.810;2023-07-20T04:20:07;98574.81;;;20.89;100.00
1616;BME280;801;47.982;7.810;2023-07-20T04:22:34;98583.41;;;20.79;100.00
1616;BME280;801;47.982;7.810;2023-07-20T04:25:03;98580.19;;;20.77;100.00
1616;BME280;801;47.982;7.810;2023-07-20T04:27:29;98588.69;;;20.76;100.00
1616;BME280;801;47.982;7.810;2023-07-20T04:29:58;98583.41;;;20.79;100.00
1616;BME280;801;47.982;7.810;2023-07-20T04:32:25;98586.13;;;20.79;100.00
1616;BME280;801;47.982;7.810;2023-07-20T04:34:52;98595.13;;;20.80;100.00
1616;BME280;801;47.982;7.810;2023-07-20T04:37:18;98589.34;;;20.81;100.00
1616;BME280;801;47.982;7.810;2023-07-20T04:39:45;98589.38;;;20.72;100.00
1616;BME280;801;47.982;7.810;2023-07-20T04:42:13;98591.75;;;20.74;100.00
1616;BME280;801;47.982;7.810;2023-07-20T04:44:40;98589.22;;;20.69;100.00
1616;BME280;801;47.982;7.810;2023-07-20T04:47:07;98590.47;;;20.71;100.00
1616;BME280;801;47.982;7.810;2023-07-20T04:49:34;98588.69;;;20.76;100.00
1616;BME280;801;47.982;7.810;2023-07-20T04:52:01;98592.53;;;20.83;100.00
1616;BME280;801;47.982;7.810;2023-07-20T04:54:28;98600.03;;;20.95;100.00
1616;BME280;801;47.982;7.810;2023-07-20T04:56:55;98596.50;;;20.94;100.00
1616;BME280;801;47.982;7.810;2023-07-20T04:59:23;98603.59;;;20.87;100.00
1616;BME280;801;47.982;7.810;2023-07-20T05:01:49;98602.31;;;20.84;100.00
1616;BME280;801;47.982;7.810;2023-07-20T05:04:16;98592.53;;;20.83;100.00
1616;BME280;801;47.982;7.810;2023-07-20T05:06:42;98590.00;;;20.69;100.00
1616;BME280;801;47.982;7.810;2023-07-20T05:09:09;98593.38;;;20.75;100.00
1616;BME280;801;47.982;7.810;2023-07-20T05:11:36;98593.69;;;20.73;100.00
1616;BME280;801;47.982;7.810;2023-07-20T05:14:02;98597.41;;;20.69;100.00
1616;BME280;801;47.982;7.810;2023-07-20T05:16:30;98587.91;;;20.75;100.00
1616;BME280;801;47.982;7.810;2023-07-20T05:18:57;98597.88;;;20.71;100.00
1616;BME280;801;47.982;7.810;2023-07-20T05:21:23;98598.53;;;20.68;100.00
1616;BME280;801;47.982;7.810;2023-07-20T05:23:50;98592.69;;;20.78;100.00
1616;BME280;801;47.982;7.810;2023-07-20T05:26:16;98598.16;;;20.78;100.00
1616;BME280;801;47.982;7.810;2023-07-20T05:28:42;98602.16;;;20.81;100.00
1616;BME280;801;47.982;7.810;2023-07-20T05:31:09;98602.31;;;20.84;100.00
1616;BME280;801;47.982;7.810;2023-07-20T05:33:37;98597.50;;;20.90;100.00
1616;BME280;801;47.982;7.810;2023-07-20T05:36:04;98588.19;;;20.82;100.00
1616;BME280;801;47.982;7.810;2023-07-20T05:38:31;98593.19;;;20.80;100.00
1616;BME280;801;47.982;7.810;2023-07-20T05:40:59;98601.22;;;20.85;100.00
1616;BME280;801;47.982;7.810;2023-07-20T05:43:27;98590.88;;;20.91;100.00
1616;BME280;801;47.982;7.810;2023-07-20T05:45:53;98604.69;;;20.94;100.00
1616;BME280;801;47.982;7.810;2023-07-20T05:48:20;98596.78;;;21.02;100.00
1616;BME280;801;47.982;7.810;2023-07-20T05:50:48;98595.47;;;21.08;100.00
1616;BME280;801;47.982;7.810;2023-07-20T05:53:14;98602.63;;;21.21;100.00
1616;BME280;801;47.982;7.810;2023-07-20T05:55:41;98608.38;;;21.28;100.00
1616;BME280;801;47.982;7.810;2023-07-20T05:58:07;98606.28;;;21.25;100.00
1616;BME280;801;47.982;7.810;2023-07-20T06:00:34;98606.44;;;21.29;100.00
1616;BME280;801;47.982;7.810;2023-07-20T06:03:00;98598.66;;;21.40;100.00
1616;BME280;801;47.982;7.810;2023-07-20T06:05:27;98600.75;;;21.43;100.00
1616;BME280;801;47.982;7.810;2023-07-20T06:07:55;98600.91;;;21.46;100.00
1616;BME280;801;47.982;7.810;2023-07-20T06:10:22;98604.28;;;21.43;100.00
1616;BME280;801;47.982;7.810;2023-07-20T06:12:49;98606.47;;;21.50;100.00
1616;BME280;801;47.982;7.810;2023-07-20T06:15:25;98608.84;;;21.60;100.00
1616;BME280;801;47.982;7.810;2023-07-20T06:17:53;98602.22;;;21.61;99.87
1616;BME280;801;47.982;7.810;2023-07-20T06:20:20;98604.09;;;21.69;99.73
1616;BME280;801;47.982;7.810;2023-07-20T06:22:47;98594.09;;;21.73;100.00
1616;BME280;801;47.982;7.810;2023-07-20T06:25:15;98595.69;;;21.74;100.00
1616;BME280;801;47.982;7.810;2023-07-20T06:27:42;98603.03;;;21.83;100.00
1616;BME280;801;47.982;7.810;2023-07-20T06:30:10;98602.50;;;21.89;100.00
1616;BME280;801;47.982;7.810;2023-07-20T06:32:37;98591.69;;;21.93;99.14
1616;BME280;801;47.982;7.810;2023-07-20T06:35:05;98599.53;;;21.94;98.25
1616;BME280;801;47.982;7.810;2023-07-20T06:37:31;98595.13;;;22.02;100.00
1616;BME280;801;47.982;7.810;2023-07-20T06:39:58;98598.19;;;22.01;98.64
1616;BME280;801;47.982;7.810;2023-07-20T06:42:26;98590.75;;;21.89;97.37
1616;BME280;801;47.982;7.810;2023-07-20T06:44:52;98592.69;;;21.88;96.35
1616;BME280;801;47.982;7.810;2023-07-20T06:47:19;98597.09;;;22.02;95.25
1616;BME280;801;47.982;7.810;2023-07-20T06:49:45;98600.34;;;21.95;95.60
1616;BME280;801;47.982;7.810;2023-07-20T06:52:12;98587.03;;;22.06;94.94
1616;BME280;801;47.982;7.810;2023-07-20T06:54:38;98596.38;;;22.26;95.66
1616;BME280;801;47.982;7.810;2023-07-20T06:57:05;98598.00;;;22.27;94.45
1616;BME280;801;47.982;7.810;2023-07-20T06:59:33;98600.94;;;22.22;95.86
1616;BME280;801;47.982;7.810;2023-07-20T07:02:01;98599.28;;;22.08;90.41
1616;BME280;801;47.982;7.810;2023-07-20T07:04:27;98600.06;;;22.09;93.33
1616;BME280;801;47.982;7.810;2023-07-20T07:06:54;98596.84;;;22.28;92.69
1616;BME280;801;47.982;7.810;2023-07-20T07:09:20;98593.25;;;22.15;87.92
1616;BME280;801;47.982;7.810;2023-07-20T07:11:47;98601.38;;;22.24;86.66
1616;BME280;801;47.982;7.810;2023-07-20T07:14:13;98592.44;;;22.14;85.62
1616;BME280;801;47.982;7.810;2023-07-20T07:16:42;98594.91;;;22.07;84.75
1616;BME280;801;47.982;7.810;2023-07-20T07:19:08;98596.56;;;22.21;85.81
1616;BME280;801;47.982;7.810;2023-07-20T07:21:35;98598.56;;;22.32;86.75
1616;BME280;801;47.982;7.810;2023-07-20T07:24:01;98594.63;;;22.42;85.64
1616;BME280;801;47.982;7.810;2023-07-20T07:26:29;98602.78;;;22.30;83.03
1616;BME280;801;47.982;7.810;2023-07-20T07:28:55;98603.94;;;22.29;86.19
1616;BME280;801;47.982;7.810;2023-07-20T07:31:22;98600.03;;;21.75;84.91
1616;BME280;801;47.982;7.810;2023-07-20T07:33:50;98601.94;;;21.96;85.29
1616;BME280;801;47.982;7.810;2023-07-20T07:36:16;98605.47;;;21.96;86.08
1616;BME280;801;47.982;7.810;2023-07-20T07:38:43;98601.09;;;22.16;86.13
1616;BME280;801;47.982;7.810;2023-07-20T07:41:09;98612.47;;;22.27;83.51
1616;BME280;801;47.982;7.810;2023-07-20T07:43:36;98610.75;;;22.23;82.28
1616;BME280;801;47.982;7.810;2023-07-20T07:46:03;98603.75;;;22.13;82.00
1616;BME280;801;47.982;7.810;2023-07-20T07:48:30;98604.31;;;22.18;82.99
1616;BME280;801;47.982;7.810;2023-07-20T07:50:58;98602.59;;;22.35;83.66
1616;BME280;801;47.982;7.810;2023-07-20T07:53:24;98602.28;;;22.49;83.89
1616;BME280;801;47.982;7.810;2023-07-20T07:55:51;98599.78;;;22.68;82.88
1616;BME280;801;47.982;7.810;2023-07-20T07:58:18;98604.50;;;22.80;80.78
1616;BME280;801;47.982;7.810;2023-07-20T08:00:44;98595.25;;;22.97;80.24
1616;BME280;801;47.982;7.810;2023-07-20T08:03:13;98609.34;;;23.20;78.52
1616;BME280;801;47.982;7.810;2023-07-20T08:05:39;98615.47;;;23.17;77.18
1616;BME280;801;47.982;7.810;2023-07-20T08:08:07;98603.97;;;23.11;79.68
1616;BME280;801;47.982;7.810;2023-07-20T08:10:34;98605.78;;;23.32;77.87
1616;BME280;801;47.982;7.810;2023-07-20T08:13:00;98601.88;;;23.45;76.26
1616;BME280;801;47.982;7.810;2023-07-20T08:15:27;98602.41;;;23.51;73.83
1616;BME280;801;47.982;7.810;2023-07-20T08:17:53;98602.78;;;23.49;72.79
1616;BME280;801;47.982;7.810;2023-07-20T08:20:20;98603.81;;;23.45;72.49
1616;BME280;801;47.982;7.810;2023-07-20T08:22:51;98605.84;;;23.60;72.19
1616;BME280;801;47.982;7.810;2023-07-20T08:25:20;98608.44;;;23.69;74.74
1616;BME280;801;47.982;7.810;2023-07-20T08:27:46;98600.00;;;23.61;73.19
1616;BME280;801;47.982;7.810;2023-07-20T08:30:13;98598.00;;;23.34;70.82
1616;BME280;801;47.982;7.810;2023-07-20T08:32:39;98602.41;;;23.51;71.13
1616;BME280;801;47.982;7.810;2023-07-20T08:35:06;98601.53;;;23.47;71.09
1616;BME280;801;47.982;7.810;2023-07-20T08:37:33;98594.22;;;23.26;69.72
1616;BME280;801;47.982;7.810;2023-07-20T08:40:00;98596.50;;;23.36;72.58
1616;BME280;801;47.982;7.810;2023-07-20T08:42:28;98596.28;;;22.80;71.40
1616;BME280;801;47.982;7.810;2023-07-20T08:44:56;98595.78;;;22.66;73.43
1616;BME280;801;47.982;7.810;2023-07-20T08:47:24;98590.63;;;22.52;72.37
1616;BME280;801;47.982;7.810;2023-07-20T08:49:53;98597.53;;;22.95;71.44
1616;BME280;801;47.982;7.810;2023-07-20T08:52:20;98591.72;;;23.33;71.23
1616;BME280;801;47.982;7.810;2023-07-20T08:54:47;98596.94;;;23.51;73.24
1616;BME280;801;47.982;7.810;2023-07-20T08:57:14;98598.63;;;23.55;71.18
1616;BME280;801;47.982;7.810;2023-07-20T08:59:43;98590.03;;;23.69;72.73
1616;BME280;801;47.982;7.810;2023-07-20T09:02:16;98592.81;;;23.97;73.60
1616;BME280;801;47.982;7.810;2023-07-20T09:04:44;98585.63;;;23.93;69.45
1616;BME280;801;47.982;7.810;2023-07-20T09:07:12;98586.06;;;24.07;65.03
1616;BME280;801;47.982;7.810;2023-07-20T09:09:40;98583.41;;;23.82;65.00
1616;BME280;801;47.982;7.810;2023-07-20T09:12:13;98579.06;;;23.69;71.51
1616;BME280;801;47.982;7.810;2023-07-20T09:14:43;98579.94;;;23.86;72.23
1616;BME280;801;47.982;7.810;2023-07-20T09:17:13;98576.91;;;23.62;64.87
1616;BME280;801;47.982;7.810;2023-07-20T09:19:45;98581.50;;;23.58;64.61
1616;BME280;801;47.982;7.810;2023-07-20T09:22:12;98579.16;;;23.32;65.02
1616;BME280;801;47.982;7.810;2023-07-20T09:24:38;98572.16;;;23.35;65.04
1616;BME280;801;47.982;7.810;2023-07-20T09:27:06;98572.50;;;23.46;63.58
1616;BME280;801;47.982;7.810;2023-07-20T09:29:33;98565.28;;;23.53;65.17
1616;BME280;801;47.982;7.810;2023-07-20T09:32:02;98564.53;;;24.09;68.70
1616;BME280;801;47.982;7.810;2023-07-20T09:34:29;98563.53;;;24.45;64.88
1616;BME280;801;47.982;7.810;2023-07-20T09:36:57;98571.63;;;24.86;63.55
1616;BME280;801;47.982;7.810;2023-07-20T09:39:24;98565.94;;;24.95;59.53
1616;BME280;801;47.982;7.810;2023-07-20T09:41:51;98556.25;;;24.37;58.87
1616;BME280;801;47.982;7.810;2023-07-20T09:44:18;98555.00;;;24.19;61.07
1616;BME280;801;47.982;7.810;2023-07-20T09:46:45;98557.47;;;24.24;59.83
1616;BME280;801;47.982;7.810;2023-07-20T09:49:14;98548.47;;;24.39;59.80
1616;BME280;801;47.982;7.810;2023-07-20T09:51:40;98552.69;;;24.65;58.63
1616;BME280;801;47.982;7.810;2023-07-20T09:54:07;98546.47;;;24.68;56.62
1616;BME280;801;47.982;7.810;2023-07-20T09:56:34;98543.38;;;24.54;57.93
1616;BME280;801;47.982;7.810;2023-07-20T09:59:01;98537.47;;;24.39;57.42
1616;BME280;801;47.982;7.810;2023-07-20T10:01:28;98536.06;;;24.77;57.94
1616;BME280;801;47.982;7.810;2023-07-20T10:03:58;98538.75;;;25.25;57.09
1616;BME280;801;47.982;7.810;2023-07-20T10:06:28;98525.41;;;25.62;55.09
1616;BME280;801;47.982;7.810;2023-07-20T10:09:00;98533.09;;;25.53;56.98
1616;BME280;801;47.982;7.810;2023-07-20T10:11:30;98532.25;;;25.88;57.98
1616;BME280;801;47.982;7.810;2023-07-20T10:13:58;98524.78;;;26.31;57.40
1616;BME280;801;47.982;7.810;2023-07-20T10:16:28;98520.56;;;26.60;54.02
1616;BME280;801;47.982;7.810;2023-07-20T10:19:02;98517.75;;;26.57;53.30
1616;BME280;801;47.982;7.810;2023-07-20T10:21:32;98523.91;;;26.50;52.27
1616;BME280;801;47.982;7.810;2023-07-20T10:24:00;98509.53;;;26.60;54.53
1616;BME280;801;47.982;7.810;2023-07-20T10:26:27;98509.81;;;26.32;51.70
1616;BME280;801;47.982;7.810;2023-07-20T10:28:55;98512.88;;;25.84;49.67
1616;BME280;801;47.982;7.810;2023-07-20T10:31:22;98504.13;;;25.98;48.97
1616;BME280;801;47.982;7.810;2023-07-20T10:33:50;98507.38;;;25.84;49.15
1616;BME280;801;47.982;7.810;2023-07-20T10:36:24;98507.09;;;25.89;48.45
1616;BME280;801;47.982;7.810;2023-07-20T10:38:54;98510.66;;;25.71;48.13
1616;BME280;801;47.982;7.810;2023-07-20T10:41:27;98496.59;;;25.76;47.69
1616;BME280;801;47.982;7.810;2023-07-20T10:43:58;98503.63;;;25.73;49.06
1616;BME280;801;47.982;7.810;2023-07-20T10:46:34;98497.84;;;25.59;49.01
1616;BME280;801;47.982;7.810;2023-07-20T10:49:02;98500.72;;;25.85;47.10
1616;BME280;801;47.982;7.810;2023-07-20T10:51:29;98508.47;;;26.22;48.44
1616;BME280;801;47.982;7.810;2023-07-20T10:53:57;98500.09;;;26.38;46.75
1616;BME280;801;47.982;7.810;2023-07-20T10:56:27;98498.91;;;25.93;46.27
1616;BME280;801;47.982;7.810;2023-07-20T10:58:57;98493.41;;;25.74;47.13
1616;BME280;801;47.982;7.810;2023-07-20T11:01:27;98484.53;;;25.61;49.38
1616;BME280;801;47.982;7.810;2023-07-20T11:03:57;98488.53;;;25.86;50.56
1616;BME280;801;47.982;7.810;2023-07-20T11:06:32;98482.34;;;25.70;51.08
1616;BME280;801;47.982;7.810;2023-07-20T11:09:06;98478.94;;;25.77;52.51
1616;BME280;801;47.982;7.810;2023-07-20T11:11:34;98478.00;;;26.12;50.32
1616;BME280;801;47.982;7.810;2023-07-20T11:14:03;98479.66;;;26.89;50.37
1616;BME280;801;47.982;7.810;2023-07-20T11:16:33;98474.19;;;26.92;47.90
1616;BME280;801;47.982;7.810;2023-07-20T11:19:00;98472.59;;;26.65;48.13
1616;BME280;801;47.982;7.810;2023-07-20T11:21:27;98468.03;;;27.03;48.67
1616;BME280;801;47.982;7.810;2023-07-20T11:23:55;98463.28;;;27.30;48.23
1616;BME280;801;47.982;7.810;2023-07-20T11:26:23;98460.66;;;27.41;46.12
1616;BME280;801;47.982;7.810;2023-07-20T11:28:49;98461.53;;;27.82;46.12
1616;BME280;801;47.982;7.810;2023-07-20T11:31:17;98456.97;;;27.63;46.47
1616;BME280;801;47.982;7.810;2023-07-20T11:33:43;98458.72;;;28.16;43.55
1616;BME280;801;47.982;7.810;2023-07-20T11:36:10;98456.69;;;28.09;45.94
1616;BME280;801;47.982;7.810;2023-07-20T11:38:36;98450.59;;;28.38;43.96
1616;BME280;801;47.982;7.810;2023-07-20T11:41:04;98447.13;;;28.00;43.31
1616;BME280;801;47.982;7.810;2023-07-20T11:43:32;98451.66;;;27.81;44.49
1616;BME280;801;47.982;7.810;2023-07-20T11:45:59;98442.47;;;26.76;45.65
1616;BME280;801;47.982;7.810;2023-07-20T11:48:26;98440.53;;;26.53;46.80
1616;BME280;801;47.982;7.810;2023-07-20T11:50:52;98439.31;;;26.27;47.83
1616;BME280;801;47.982;7.810;2023-07-20T11:53:19;98439.72;;;26.53;47.34
1616;BME280;801;47.982;7.810;2023-07-20T11:55:47;98445.00;;;26.61;46.82
1616;BME280;801;47.982;7.810;2023-07-20T11:58:13;98434.63;;;27.38;45.68
1616;BME280;801;47.982;7.810;2023-07-20T12:00:44;98435.19;;;27.88;43.74
1616;BME280;801;47.982;7.810;2023-07-20T12:03:12;98420.75;;;27.31;43.85
1616;BME280;801;47.982;7.810;2023-07-20T12:05:39;98430.16;;;27.64;44.69
1616;BME280;801;47.982;7.810;2023-07-20T12:08:05;98426.00;;;28.18;43.70
1616;BME280;801;47.982;7.810;2023-07-20T12:10:32;98418.34;;;27.63;41.84
1616;BME280;801;47.982;7.810;2023-07-20T12:13:01;98422.34;;;28.07;42.88
1616;BME280;801;47.982;7.810;2023-07-20T12:15:29;98417.34;;;28.23;41.22
1616;BME280;801;47.982;7.810;2023-07-20T12:17:59;98411.81;;;28.23;42.14
1616;BME280;801;47.982;7.810;2023-07-20T12:20:28;98411.19;;;28.41;41.82
1616;BME280;801;47.982;7.810;2023-07-20T12:22:59;98420.97;;;28.90;41.10
1616;BME280;801;47.982;7.810;2023-07-20T12:25:34;98413.16;;;29.03;42.02
1616;BME280;801;47.982;7.810;2023-07-20T12:28:04;98414.03;;;29.21;40.01
1616;BME280;801;47.982;7.810;2023-07-20T12:30:31;98412.03;;;29.14;40.10
1616;BME280;801;47.982;7.810;2023-07-20T12:32:58;98402.13;;;29.13;39.80
1616;BME280;801;47.982;7.810;2023-07-20T12:35:25;98403.84;;;28.66;39.95
1616;BME280;801;47.982;7.810;2023-07-20T12:37:51;98409.47;;;28.25;40.44
1616;BME280;801;47.982;7.810;2023-07-20T12:40:18;98399.75;;;28.46;40.28
1616;BME280;801;47.982;7.810;2023-07-20T12:42:45;98392.59;;;28.38;39.36
1616;BME280;801;47.982;7.810;2023-07-20T12:45:12;98393.09;;;28.50;39.31
1616;BME280;801;47.982;7.810;2023-07-20T12:47:39;98384.19;;;28.79;39.02
1616;BME280;801;47.982;7.810;2023-07-20T12:50:09;98379.38;;;28.68;38.84
1616;BME280;801;47.982;7.810;2023-07-20T12:52:36;98371.03;;;28.58;39.42
1616;BME280;801;47.982;7.810;2023-07-20T12:55:03;98375.59;;;28.32;39.59
1616;BME280;801;47.982;7.810;2023-07-20T12:57:30;98371.84;;;28.58;39.10
1616;BME280;801;47.982;7.810;2023-07-20T12:59:56;98369.19;;;28.76;39.18
1616;BME280;801;47.982;7.810;2023-07-20T13:02:23;98364.34;;;29.61;39.03
1616;BME280;801;47.982;7.810;2023-07-20T13:04:50;98373.97;;;28.90;36.08
1616;BME280;801;47.982;7.810;2023-07-20T13:07:29;98361.72;;;28.87;37.07
1616;BME280;801;47.982;7.810;2023-07-20T13:09:55;98362.56;;;29.02;36.08
1616;BME280;801;47.982;7.810;2023-07-20T13:12:23;98361.66;;;28.80;36.75
1616;BME280;801;47.982;7.810;2023-07-20T13:14:49;98359.78;;;28.98;36.16
1616;BME280;801;47.982;7.810;2023-07-20T13:17:16;98349.22;;;29.18;36.97
1616;BME280;801;47.982;7.810;2023-07-20T13:19:42;98359.16;;;29.34;37.25
1616;BME280;801;47.982;7.810;2023-07-20T13:22:08;98356.06;;;29.89;36.51
1616;BME280;801;47.982;7.810;2023-07-20T13:24:37;98354.44;;;29.67;37.32
1616;BME280;801;47.982;7.810;2023-07-20T13:27:04;98351.75;;;29.92;37.45
1616;BME280;801;47.982;7.810;2023-07-20T13:29:31;98344.19;;;29.96;36.15
1616;BME280;801;47.982;7.810;2023-07-20T13:31:58;98347.75;;;30.36;36.71
1616;BME280;801;47.982;7.810;2023-07-20T13:34:25;98345.38;;;29.98;36.61